sensor_id;sensor_type;location;lat;lon;timestamp;pressure;altitude;pressure_sealevel;temperature;humidity
63663;BME280;49815;51.618;0.336;2022-10-16T00:01:19;99838.49;;;10.82;53.84
63663;BME280;49815;51.618;0.336;2022-10-16T00:03:44;99837.97;;;11.02;53.70
63663;BME280;49815;51.618;0.336;2022-10-16T00:06:09;99843.14;;;10.84;54.08
63663;BME280;49815;51.618;0.336;2022-10-16T00:08:32;99842.50;;;10.59;54.53
63663;BME280;49815;51.618;0.336;2022-10-16T00:11:00;99849.19;;;10.48;54.63
63663;BME280;49815;51.618;0.336;2022-10-16T00:13:23;99848.77;;;10.70;54.92
63663;BME280;49815;51.618;0.336;2022-10-16T00:15:48;99848.96;;;10.51;53.82
63663;BME280;49815;51.618;0.336;2022-10-16T00:18:14;99846.89;;;11.13;54.10
63663;BME280;49815;51.618;0.336;2022-10-16T00:20:39;99844.52;;;10.85;53.65
63663;BME280;49815;51.618;0.336;2022-10-16T00:23:05;99848.13;;;10.67;54.43
63663;BME280;49815;51.618;0.336;2022-10-16T00:25:30;99846.79;;;10.84;54.36
63663;BME280;49815;51.618;0.336;2022-10-16T00:27:55;99842.81;;;10.84;54.49
63663;BME280;49815;51.618;0.336;2022-10-16T00:30:21;99842.02;;;10.96;54.28
63663;BME280;49815;51.618;0.336;2022-10-16T00:32:46;99845.27;;;10.53;55.17
63663;BME280;49815;51.618;0.336;2022-10-16T00:35:12;99844.92;;;10.59;55.18
63663;BME280;49815;51.618;0.336;2022-10-16T00:37:37;99847.34;;;10.78;54.82
63663;BME280;49815;51.618;0.336;2022-10-16T00:40:02;99852.64;;;10.72;55.42
63663;BME280;49815;51.618;0.336;2022-10-16T00:42:28;99852.58;;;10.68;55.14
63663;BME280;49815;51.618;0.336;2022-10-16T00:44:55;99857.37;;;11.16;53.69
63663;BME280;49815;51.618;0.336;2022-10-16T00:47:23;99861.22;;;11.50;53.37
63663;BME280;49815;51.618;0.336;2022-10-16T00:49:43;99858.18;;;11.54;53.15
63663;BME280;49815;51.618;0.336;2022-10-16T00:52:10;99855.53;;;11.63;53.11
63663;BME280;49815;51.618;0.336;2022-10-16T00:54:35;99859.61;;;11.12;53.01
63663;BME280;49815;51.618;0.336;2022-10-16T00:57:04;99865.93;;;10.63;54.31
63663;BME280;49815;51.618;0.336;2022-10-16T00:59:27;99866.69;;;10.95;53.43
63663;BME280;49815;51.618;0.336;2022-10-16T01:01:50;99867.91;;;11.58;52.51
63663;BME280;49815;51.618;0.336;2022-10-16T01:04:15;99867.60;;;11.42;52.33
63663;BME280;49815;51.618;0.336;2022-10-16T01:06:46;99871.64;;;11.39;51.91
63663;BME280;49815;51.618;0.336;2022-10-16T01:09:13;99873.25;;;10.61;53.74
63663;BME280;49815;51.618;0.336;2022-10-16T01:11:35;99876.01;;;10.45;54.09
63663;BME280;49815;51.618;0.336;2022-10-16T01:14:00;99874.69;;;10.83;53.81
63663;BME280;49815;51.618;0.336;2022-10-16T01:16:29;99876.60;;;11.25;53.02
63663;BME280;49815;51.618;0.336;2022-10-16T01:18:51;99866.24;;;12.19;51.66
63663;BME280;49815;51.618;0.336;2022-10-16T01:21:17;99867.84;;;11.16;53.16
63663;BME280;49815;51.618;0.336;2022-10-16T01:23:45;99871.08;;;10.93;53.51
63663;BME280;49815;51.618;0.336;2022-10-16T01:26:14;99865.18;;;11.23;52.02
63663;BME280;49815;51.618;0.336;2022-10-16T01:28:34;99873.44;;;10.64;53.86
63663;BME280;49815;51.618;0.336;2022-10-16T01:30:58;99873.37;;;10.87;53.50
63663;BME280;49815;51.618;0.336;2022-10-16T01:33:22;99877.14;;;10.61;54.43
63663;BME280;49815;51.618;0.336;2022-10-16T01:35:47;99873.09;;;10.24;54.95
63663;BME280;49815;51.618;0.336;2022-10-16T01:38:15;99875.35;;;10.02;55.42
63663;BME280;49815;51.618;0.336;2022-10-16T01:40:39;99874.21;;;10.59;54.62
63663;BME280;49815;51.618;0.336;2022-10-16T01:43:06;99878.59;;;10.96;53.50
63663;BME280;49815;51.618;0.336;2022-10-16T01:45:29;99881.18;;;10.41;53.55
63663;BME280;49815;51.618;0.336;2022-10-16T01:47:53;99877.68;;;10.17;54.92
63663;BME280;49815;51.618;0.336;2022-10-16T01:50:19;99881.13;;;10.45;54.47
63663;BME280;49815;51.618;0.336;2022-10-16T01:52:46;99885.97;;;10.28;55.24
63663;BME280;49815;51.618;0.336;2022-10-16T01:55:11;99886.61;;;10.41;54.63
63663;BME280;49815;51.618;0.336;2022-10-16T01:57:36;99889.22;;;10.37;54.56
63663;BME280;49815;51.618;0.336;2022-10-16T02:00:03;99893.19;;;10.47;53.58
63663;BME280;49815;51.618;0.336;2022-10-16T02:02:26;99896.96;;;10.91;53.57
63663;BME280;49815;51.618;0.336;2022-10-16T02:04:55;99898.88;;;11.16;52.64
63663;BME280;49815;51.618;0.336;2022-10-16T02:07:16;99903.73;;;11.35;52.51
63663;BME280;49815;51.618;0.336;2022-10-16T02:09:41;99908.10;;;11.06;52.82
63663;BME280;49815;51.618;0.336;2022-10-16T02:12:11;99910.04;;;11.40;52.28
63663;BME280;49815;51.618;0.336;2022-10-16T02:14:32;99918.87;;;11.14;53.22
63663;BME280;49815;51.618;0.336;2022-10-16T02:16:57;99919.14;;;11.16;52.87
63663;BME280;49815;51.618;0.336;2022-10-16T02:19:22;99899.11;;;10.95;53.51
63663;BME280;49815;51.618;0.336;2022-10-16T02:21:53;99907.48;;;11.49;52.62
63663;BME280;49815;51.618;0.336;2022-10-16T02:24:19;99913.33;;;11.16;53.17
63663;BME280;49815;51.618;0.336;2022-10-16T02:26:44;99916.90;;;11.28;53.07
63663;BME280;49815;51.618;0.336;2022-10-16T02:29:07;99928.24;;;10.58;55.26
63663;BME280;49815;51.618;0.336;2022-10-16T02:31:31;99920.76;;;11.06;54.39
63663;BME280;49815;51.618;0.336;2022-10-16T02:33:55;99925.77;;;10.77;54.76
63663;BME280;49815;51.618;0.336;2022-10-16T02:36:19;99920.58;;;10.78;54.67
63663;BME280;49815;51.618;0.336;2022-10-16T02:38:44;99924.13;;;10.34;55.19
63663;BME280;49815;51.618;0.336;2022-10-16T02:41:10;99924.14;;;10.95;54.16
63663;BME280;49815;51.618;0.336;2022-10-16T02:43:35;99925.57;;;10.69;54.18
63663;BME280;49815;51.618;0.336;2022-10-16T02:46:00;99935.67;;;10.88;53.66
63663;BME280;49815;51.618;0.336;2022-10-16T02:48:25;99934.59;;;10.44;53.90
63663;BME280;49815;51.618;0.336;2022-10-16T02:50:50;99935.95;;;10.20;55.43
63663;BME280;49815;51.618;0.336;2022-10-16T02:53:16;99934.53;;;10.24;55.10
63663;BME280;49815;51.618;0.336;2022-10-16T02:55:41;99942.36;;;9.84;55.77
63663;BME280;49815;51.618;0.336;2022-10-16T02:58:07;99936.58;;;10.60;54.49
63663;BME280;49815;51.618;0.336;2022-10-16T03:00:32;99934.27;;;10.25;54.31
63663;BME280;49815;51.618;0.336;2022-10-16T03:02:57;99935.09;;;10.32;55.32
63663;BME280;49815;51.618;0.336;2022-10-16T03:05:23;99940.70;;;10.46;55.70
63663;BME280;49815;51.618;0.336;2022-10-16T03:07:48;99949.52;;;10.15;56.41
63663;BME280;49815;51.618;0.336;2022-10-16T03:10:13;99955.19;;;10.03;56.41
63663;BME280;49815;51.618;0.336;2022-10-16T03:12:38;99961.78;;;10.17;56.00
63663;BME280;49815;51.618;0.336;2022-10-16T03:15:04;99970.89;;;10.40;56.14
63663;BME280;49815;51.618;0.336;2022-10-16T03:17:31;99972.27;;;10.32;56.14
63663;BME280;49815;51.618;0.336;2022-10-16T03:19:54;99974.94;;;9.85;57.41
63663;BME280;49815;51.618;0.336;2022-10-16T03:22:20;99973.96;;;10.60;55.76
63663;BME280;49815;51.618;0.336;2022-10-16T03:24:45;99981.83;;;10.42;55.07
63663;BME280;49815;51.618;0.336;2022-10-16T03:27:11;99979.01;;;10.43;55.27
63663;BME280;49815;51.618;0.336;2022-10-16T03:29:36;99987.02;;;10.46;55.58
63663;BME280;49815;51.618;0.336;2022-10-16T03:32:02;99984.38;;;10.82;54.43
63663;BME280;49815;51.618;0.336;2022-10-16T03:34:27;99985.28;;;10.00;54.59
63663;BME280;49815;51.618;0.336;2022-10-16T03:36:52;99989.00;;;9.89;55.70
63663;BME280;49815;51.618;0.336;2022-10-16T03:39:18;99995.93;;;9.52;56.53
63663;BME280;49815;51.618;0.336;2022-10-16T03:41:43;99995.05;;;9.73;55.41
63663;BME280;49815;51.618;0.336;2022-10-16T03:44:08;99997.12;;;9.90;55.57
63663;BME280;49815;51.618;0.336;2022-10-16T03:46:34;99996.53;;;9.97;55.06
63663;BME280;49815;51.618;0.336;2022-10-16T03:48:59;100004.52;;;9.58;55.16
63663;BME280;49815;51.618;0.336;2022-10-16T03:51:25;100000.43;;;9.51;54.76
63663;BME280;49815;51.618;0.336;2022-10-16T03:53:50;99995.78;;;10.08;53.81
63663;BME280;49815;51.618;0.336;2022-10-16T03:56:16;100001.59;;;10.11;53.30
63663;BME280;49815;51.618;0.336;2022-10-16T03:58:41;100002.08;;;10.09;53.18
63663;BME280;49815;51.618;0.336;2022-10-16T04:01:07;100001.01;;;9.97;52.96
63663;BME280;49815;51.618;0.336;2022-10-16T04:03:32;100003.94;;;9.84;53.29
63663;BME280;49815;51.618;0.336;2022-10-16T04:05:58;100002.13;;;9.82;53.16
63663;BME280;49815;51.618;0.336;2022-10-16T04:08:22;100009.25;;;9.46;54.69
63663;BME280;49815;51.618;0.336;2022-10-16T04:10:48;100008.09;;;9.68;54.27
63663;BME280;49815;51.618;0.336;2022-10-16T04:13:13;100005.01;;;9.96;53.83
63663;BME280;49815;51.618;0.336;2022-10-16T04:15:38;100012.77;;;10.16;52.60
63663;BME280;49815;51.618;0.336;2022-10-16T04:18:04;100015.78;;;10.26;52.35
63663;BME280;49815;51.618;0.336;2022-10-16T04:20:29;100024.76;;;10.46;51.97
63663;BME280;49815;51.618;0.336;2022-10-16T04:22:54;100035.08;;;9.74;53.67
63663;BME280;49815;51.618;0.336;2022-10-16T04:25:19;100040.78;;;9.79;54.09
63663;BME280;49815;51.618;0.336;2022-10-16T04:27:45;100049.80;;;10.26;53.19
63663;BME280;49815;51.618;0.336;2022-10-16T04:30:11;100052.70;;;10.26;52.75
63663;BME280;49815;51.618;0.336;2022-10-16T04:32:36;100056.01;;;9.51;53.94
63663;BME280;49815;51.618;0.336;2022-10-16T04:35:01;100065.58;;;10.22;52.82
63663;BME280;49815;51.618;0.336;2022-10-16T04:37:26;100068.93;;;10.09;52.85
63663;BME280;49815;51.618;0.336;2022-10-16T04:39:52;100072.36;;;10.24;52.92
63663;BME280;49815;51.618;0.336;2022-10-16T04:42:17;100080.44;;;9.80;52.58
63663;BME280;49815;51.618;0.336;2022-10-16T04:44:42;100081.89;;;9.91;52.36
63663;BME280;49815;51.618;0.336;2022-10-16T04:47:08;100087.54;;;9.87;52.50
63663;BME280;49815;51.618;0.336;2022-10-16T04:49:34;100088.53;;;10.32;51.70
63663;BME280;49815;51.618;0.336;2022-10-16T04:51:59;100095.22;;;10.69;50.68
63663;BME280;49815;51.618;0.336;2022-10-16T04:54:24;100103.46;;;10.91;50.81
63663;BME280;49815;51.618;0.336;2022-10-16T04:56:50;100110.03;;;10.36;51.96
63663;BME280;49815;51.618;0.336;2022-10-16T04:59:15;100113.37;;;10.70;51.37
63663;BME280;49815;51.618;0.336;2022-10-16T05:01:41;100119.42;;;10.67;51.44
63663;BME280;49815;51.618;0.336;2022-10-16T05:04:06;100122.38;;;10.18;52.89
63663;BME280;49815;51.618;0.336;2022-10-16T05:06:33;100128.70;;;10.03;53.02
63663;BME280;49815;51.618;0.336;2022-10-16T05:08:57;100132.64;;;9.57;54.43
63663;BME280;49815;51.618;0.336;2022-10-16T05:11:22;100140.03;;;9.73;53.93
63663;BME280;49815;51.618;0.336;2022-10-16T05:13:48;100141.06;;;9.92;54.55
63663;BME280;49815;51.618;0.336;2022-10-16T05:16:13;100147.98;;;9.93;54.17
63663;BME280;49815;51.618;0.336;2022-10-16T05:18:39;100152.87;;;10.53;52.67
63663;BME280;49815;51.618;0.336;2022-10-16T05:21:05;100157.24;;;9.91;53.75
63663;BME280;49815;51.618;0.336;2022-10-16T05:23:30;100158.34;;;10.42;52.40
63663;BME280;49815;51.618;0.336;2022-10-16T05:25:56;100162.93;;;10.71;52.24
63663;BME280;49815;51.618;0.336;2022-10-16T05:28:21;100163.04;;;10.24;53.23
63663;BME280;49815;51.618;0.336;2022-10-16T05:30:46;100163.60;;;9.50;54.17
63663;BME280;49815;51.618;0.336;2022-10-16T05:33:12;100169.57;;;9.73;53.98
63663;BME280;49815;51.618;0.336;2022-10-16T05:35:37;100167.07;;;10.04;53.77
63663;BME280;49815;51.618;0.336;2022-10-16T05:38:02;100172.37;;;9.72;53.82
63663;BME280;49815;51.618;0.336;2022-10-16T05:40:28;100176.96;;;9.83;54.68
63663;BME280;49815;51.618;0.336;2022-10-16T05:42:55;100175.52;;;9.63;54.09
63663;BME280;49815;51.618;0.336;2022-10-16T05:45:19;100184.50;;;9.58;54.87
63663;BME280;49815;51.618;0.336;2022-10-16T05:47:44;100187.11;;;9.66;54.67
63663;BME280;49815;51.618;0.336;2022-10-16T05:50:10;100193.57;;;9.21;55.52
63663;BME280;49815;51.618;0.336;2022-10-16T05:52:35;100192.75;;;9.99;53.85
63663;BME280;49815;51.618;0.336;2022-10-16T05:55:01;100202.33;;;9.64;54.54
63663;BME280;49815;51.618;0.336;2022-10-16T05:57:26;100203.71;;;9.69;53.88
63663;BME280;49815;51.618;0.336;2022-10-16T05:59:51;100204.93;;;9.73;53.18
63663;BME280;49815;51.618;0.336;2022-10-16T06:02:17;100207.00;;;10.01;52.49
63663;BME280;49815;51.618;0.336;2022-10-16T06:04:42;100207.82;;;10.05;52.50
63663;BME280;49815;51.618;0.336;2022-10-16T06:07:08;100214.14;;;9.93;52.38
63663;BME280;49815;51.618;0.336;2022-10-16T06:09:33;100227.39;;;9.56;52.71
63663;BME280;49815;51.618;0.336;2022-10-16T06:11:58;100226.37;;;9.97;52.07
63663;BME280;49815;51.618;0.336;2022-10-16T06:14:24;100224.23;;;10.20;51.51
63663;BME280;49815;51.618;0.336;2022-10-16T06:16:49;100229.19;;;10.49;50.85
63663;BME280;49815;51.618;0.336;2022-10-16T06:19:15;100234.39;;;10.51;50.55
63663;BME280;49815;51.618;0.336;2022-10-16T06:21:41;100242.10;;;10.74;50.12
63663;BME280;49815;51.618;0.336;2022-10-16T06:24:05;100246.39;;;10.88;49.70
63663;BME280;49815;51.618;0.336;2022-10-16T06:26:31;100249.95;;;10.40;50.10
63663;BME280;49815;51.618;0.336;2022-10-16T06:28:58;100252.45;;;9.80;51.30
63663;BME280;49815;51.618;0.336;2022-10-16T06:31:22;100251.42;;;10.22;50.63
63663;BME280;49815;51.618;0.336;2022-10-16T06:33:50;100258.67;;;10.33;50.27
63663;BME280;49815;51.618;0.336;2022-10-16T06:36:14;100262.75;;;10.41;50.11
63663;BME280;49815;51.618;0.336;2022-10-16T06:38:38;100266.64;;;10.18;50.25
63663;BME280;49815;51.618;0.336;2022-10-16T06:41:05;100268.87;;;10.58;49.62
63663;BME280;49815;51.618;0.336;2022-10-16T06:43:30;100270.90;;;10.55;49.12
63663;BME280;49815;51.618;0.336;2022-10-16T06:45:56;100273.04;;;9.78;50.25
63663;BME280;49815;51.618;0.336;2022-10-16T06:48:21;100279.99;;;10.68;49.50
63663;BME280;49815;51.618;0.336;2022-10-16T06:50:56;100278.03;;;10.27;50.16
63663;BME280;49815;51.618;0.336;2022-10-16T06:53:11;100284.63;;;10.50;49.52
63663;BME280;49815;51.618;0.336;2022-10-16T06:55:36;100284.81;;;10.71;49.24
63663;BME280;49815;51.618;0.336;2022-10-16T06:58:02;100288.37;;;10.60;49.05
63663;BME280;49815;51.618;0.336;2022-10-16T07:00:28;100289.80;;;10.33;49.79
63663;BME280;49815;51.618;0.336;2022-10-16T07:02:53;100294.83;;;11.08;48.43
63663;BME280;49815;51.618;0.336;2022-10-16T07:05:18;100302.65;;;10.87;48.59
63663;BME280;49815;51.618;0.336;2022-10-16T07:07:44;100308.03;;;11.11;48.33
63663;BME280;49815;51.618;0.336;2022-10-16T07:10:09;100311.09;;;10.60;49.09
63663;BME280;49815;51.618;0.336;2022-10-16T07:12:35;100314.50;;;10.88;48.82
63663;BME280;49815;51.618;0.336;2022-10-16T07:15:00;100320.22;;;11.03;48.16
63663;BME280;49815;51.618;0.336;2022-10-16T07:17:25;100325.00;;;10.79;48.85
63663;BME280;49815;51.618;0.336;2022-10-16T07:19:51;100328.30;;;10.54;49.75
63663;BME280;49815;51.618;0.336;2022-10-16T07:22:16;100338.19;;;11.35;48.62
63663;BME280;49815;51.618;0.336;2022-10-16T07:24:42;100346.09;;;11.29;48.39
63663;BME280;49815;51.618;0.336;2022-10-16T07:27:07;100350.45;;;12.12;47.54
63663;BME280;49815;51.618;0.336;2022-10-16T07:29:33;100357.02;;;10.88;48.89
63663;BME280;49815;51.618;0.336;2022-10-16T07:31:58;100359.99;;;11.11;48.70
63663;BME280;49815;51.618;0.336;2022-10-16T07:34:23;100365.66;;;11.24;48.23
63663;BME280;49815;51.618;0.336;2022-10-16T07:36:49;100364.88;;;11.52;47.79
63663;BME280;49815;51.618;0.336;2022-10-16T07:39:14;100367.44;;;11.68;47.58
63663;BME280;49815;51.618;0.336;2022-10-16T07:41:39;100368.67;;;12.41;47.50
63663;BME280;49815;51.618;0.336;2022-10-16T07:44:05;100371.72;;;11.95;47.51
63663;BME280;49815;51.618;0.336;2022-10-16T07:46:30;100371.65;;;11.57;48.05
63663;BME280;49815;51.618;0.336;2022-10-16T07:48:56;100373.21;;;12.47;46.81
63663;BME280;49815;51.618;0.336;2022-10-16T07:51:23;100374.64;;;12.25;47.07
63663;BME280;49815;51.618;0.336;2022-10-16T07:53:47;100379.83;;;12.65;46.38
63663;BME280;49815;51.618;0.336;2022-10-16T07:56:11;100384.36;;;12.42;45.92
63663;BME280;49815;51.618;0.336;2022-10-16T07:58:37;100388.67;;;13.31;44.89
63663;BME280;49815;51.618;0.336;2022-10-16T08:01:04;100396.41;;;12.25;46.13
63663;BME280;49815;51.618;0.336;2022-10-16T08:03:29;100397.15;;;12.56;45.67
63663;BME280;49815;51.618;0.336;2022-10-16T08:05:53;100402.86;;;12.85;45.19
63663;BME280;49815;51.618;0.336;2022-10-16T08:08:18;100408.93;;;13.18;44.77
63663;BME280;49815;51.618;0.336;2022-10-16T08:10:44;100408.95;;;13.06;44.82
63663;BME280;49815;51.618;0.336;2022-10-16T08:13:09;100413.03;;;13.30;44.66
63663;BME280;49815;51.618;0.336;2022-10-16T08:15:34;100416.52;;;12.50;45.28
63663;BME280;49815;51.618;0.336;2022-10-16T08:18:01;100423.47;;;12.69;45.81
63663;BME280;49815;51.618;0.336;2022-10-16T08:20:26;100425.37;;;12.75;45.16
63663;BME280;49815;51.618;0.336;2022-10-16T08:22:50;100430.30;;;12.55;45.15
63663;BME280;49815;51.618;0.336;2022-10-16T08:25:15;100430.20;;;13.05;45.06
63663;BME280;49815;51.618;0.336;2022-10-16T08:27:40;100431.14;;;13.36;44.11
63663;BME280;49815;51.618;0.336;2022-10-16T08:30:07;100433.44;;;14.26;42.77
63663;BME280;49815;51.618;0.336;2022-10-16T08:32:31;100435.74;;;14.08;42.37
63663;BME280;49815;51.618;0.336;2022-10-16T08:34:57;100438.25;;;13.47;43.16
63663;BME280;49815;51.618;0.336;2022-10-16T08:37:22;100442.69;;;14.22;42.37
63663;BME280;49815;51.618;0.336;2022-10-16T08:39:47;100447.78;;;13.51;42.86
63663;BME280;49815;51.618;0.336;2022-10-16T08:42:25;100454.27;;;13.59;43.31
63663;BME280;49815;51.618;0.336;2022-10-16T08:47:09;100459.80;;;14.12;42.97
63663;BME280;49815;51.618;0.336;2022-10-16T08:49:30;100463.26;;;14.22;42.31
63663;BME280;49815;51.618;0.336;2022-10-16T08:51:55;100469.16;;;14.07;42.60
63663;BME280;49815;51.618;0.336;2022-10-16T08:54:26;100473.63;;;14.54;41.43
63663;BME280;49815;51.618;0.336;2022-10-16T08:56:45;100477.73;;;14.49;42.08
63663;BME280;49815;51.618;0.336;2022-10-16T08:59:11;100476.06;;;14.36;41.86
63663;BME280;49815;51.618;0.336;2022-10-16T09:01:40;100471.77;;;14.07;42.32
63663;BME280;49815;51.618;0.336;2022-10-16T09:06:35;100474.32;;;14.46;41.40
63663;BME280;49815;51.618;0.336;2022-10-16T09:09:03;100475.71;;;14.06;42.38
63663;BME280;49815;51.618;0.336;2022-10-16T09:11:22;100478.16;;;14.44;41.31
63663;BME280;49815;51.618;0.336;2022-10-16T09:13:48;100481.20;;;13.76;42.59
63663;BME280;49815;51.618;0.336;2022-10-16T09:16:15;100485.63;;;13.70;42.36
63663;BME280;49815;51.618;0.336;2022-10-16T09:18:37;100484.85;;;14.33;41.03
63663;BME280;49815;51.618;0.336;2022-10-16T09:21:05;100485.12;;;14.87;41.39
63663;BME280;49815;51.618;0.336;2022-10-16T09:23:26;100485.57;;;14.90;40.42
63663;BME280;49815;51.618;0.336;2022-10-16T09:25:50;100487.89;;;15.13;40.67
63663;BME280;49815;51.618;0.336;2022-10-16T09:28:14;100484.18;;;14.28;41.34
63663;BME280;49815;51.618;0.336;2022-10-16T09:30:39;100493.45;;;15.24;40.87
63663;BME280;49815;51.618;0.336;2022-10-16T09:33:06;100496.73;;;14.77;40.62
63663;BME280;49815;51.618;0.336;2022-10-16T09:35:35;100502.14;;;15.59;39.93
63663;BME280;49815;51.618;0.336;2022-10-16T09:37:56;100497.68;;;15.32;39.69
63663;BME280;49815;51.618;0.336;2022-10-16T09:40:27;100500.74;;;14.91;39.74
63663;BME280;49815;51.618;0.336;2022-10-16T09:42:47;100500.50;;;14.83;40.17
63663;BME280;49815;51.618;0.336;2022-10-16T09:45:20;100497.48;;;14.55;40.89
63663;BME280;49815;51.618;0.336;2022-10-16T09:47:41;100501.91;;;15.22;39.55
63663;BME280;49815;51.618;0.336;2022-10-16T09:50:13;100503.37;;;14.88;39.19
63663;BME280;49815;51.618;0.336;2022-10-16T09:52:30;100509.99;;;14.97;39.49
63663;BME280;49815;51.618;0.336;2022-10-16T09:54:55;100506.29;;;15.40;38.83
63663;BME280;49815;51.618;0.336;2022-10-16T09:57:21;100507.91;;;15.19;39.37
63663;BME280;49815;51.618;0.336;2022-10-16T09:59:48;100506.10;;;15.38;38.90
63663;BME280;49815;51.618;0.336;2022-10-16T10:02:14;100500.74;;;15.75;38.26
63663;BME280;49815;51.618;0.336;2022-10-16T10:04:41;100500.70;;;15.67;37.88
63663;BME280;49815;51.618;0.336;2022-10-16T10:07:01;100501.51;;;15.71;38.67
63663;BME280;49815;51.618;0.336;2022-10-16T10:09:28;100510.13;;;15.15;39.47
63663;BME280;49815;51.618;0.336;2022-10-16T10:11:57;100516.86;;;16.26;38.67
63663;BME280;49815;51.618;0.336;2022-10-16T10:14:21;100518.50;;;15.11;39.60
63663;BME280;49815;51.618;0.336;2022-10-16T10:16:43;100521.94;;;15.40;39.36
63663;BME280;49815;51.618;0.336;2022-10-16T10:19:13;100522.80;;;15.61;39.04
63663;BME280;49815;51.618;0.336;2022-10-16T10:21:33;100524.57;;;15.19;38.65
63663;BME280;49815;51.618;0.336;2022-10-16T10:23:58;100525.05;;;14.82;39.44
63663;BME280;49815;51.618;0.336;2022-10-16T10:26:25;100535.60;;;15.39;39.30
63663;BME280;49815;51.618;0.336;2022-10-16T10:28:55;100538.66;;;14.91;39.87
63663;BME280;49815;51.618;0.336;2022-10-16T10:31:20;100537.86;;;15.31;39.80
63663;BME280;49815;51.618;0.336;2022-10-16T10:33:45;100543.67;;;15.37;39.97
63663;BME280;49815;51.618;0.336;2022-10-16T10:36:19;100547.67;;;14.66;39.85
63663;BME280;49815;51.618;0.336;2022-10-16T10:38:39;100542.27;;;14.20;40.83
63663;BME280;49815;51.618;0.336;2022-10-16T10:41:07;100533.09;;;14.25;40.85
63663;BME280;49815;51.618;0.336;2022-10-16T10:43:31;100531.18;;;14.65;40.13
63663;BME280;49815;51.618;0.336;2022-10-16T10:45:48;100526.38;;;14.09;40.59
63663;BME280;49815;51.618;0.336;2022-10-16T10:48:24;100525.03;;;14.26;40.53
63663;BME280;49815;51.618;0.336;2022-10-16T10:50:41;100523.52;;;14.01;40.17
63663;BME280;49815;51.618;0.336;2022-10-16T10:53:09;100528.58;;;15.47;39.70
63663;BME280;49815;51.618;0.336;2022-10-16T10:55:37;100527.95;;;15.55;39.31
63663;BME280;49815;51.618;0.336;2022-10-16T10:58:10;100525.89;;;15.61;38.98
63663;BME280;49815;51.618;0.336;2022-10-16T11:00:21;100525.54;;;15.73;38.65
63663;BME280;49815;51.618;0.336;2022-10-16T11:02:48;100517.68;;;16.35;38.00
63663;BME280;49815;51.618;0.336;2022-10-16T11:05:25;100522.77;;;16.12;38.10
63663;BME280;49815;51.618;0.336;2022-10-16T11:07:37;100520.27;;;16.62;37.14
63663;BME280;49815;51.618;0.336;2022-10-16T11:10:04;100517.18;;;16.42;36.81
63663;BME280;49815;51.618;0.336;2022-10-16T11:12:29;100517.60;;;17.17;36.97
63663;BME280;49815;51.618;0.336;2022-10-16T11:14:56;100514.83;;;16.93;36.54
63663;BME280;49815;51.618;0.336;2022-10-16T11:17:22;100510.55;;;16.81;35.98
63663;BME280;49815;51.618;0.336;2022-10-16T11:19:44;100509.36;;;15.86;36.27
63663;BME280;49815;51.618;0.336;2022-10-16T11:22:12;100505.97;;;16.36;36.22
63663;BME280;49815;51.618;0.336;2022-10-16T11:24:40;100507.43;;;16.76;35.46
63663;BME280;49815;51.618;0.336;2022-10-16T11:27:00;100512.80;;;17.09;35.82
63663;BME280;49815;51.618;0.336;2022-10-16T11:29:26;100510.44;;;16.35;35.08
63663;BME280;49815;51.618;0.336;2022-10-16T11:31:51;100505.90;;;17.01;34.41
63663;BME280;49815;51.618;0.336;2022-10-16T11:34:19;100511.10;;;16.18;34.57
63663;BME280;49815;51.618;0.336;2022-10-16T11:36:42;100513.40;;;15.73;35.08
63663;BME280;49815;51.618;0.336;2022-10-16T11:39:10;100509.57;;;15.85;34.99
63663;BME280;49815;51.618;0.336;2022-10-16T11:41:34;100516.84;;;15.30;36.29
63663;BME280;49815;51.618;0.336;2022-10-16T11:46:22;100515.66;;;15.05;37.40
63663;BME280;49815;51.618;0.336;2022-10-16T11:48:49;100515.80;;;15.23;37.55
63663;BME280;49815;51.618;0.336;2022-10-16T11:51:17;100521.94;;;16.12;37.19
63663;BME280;49815;51.618;0.336;2022-10-16T11:53:45;100520.67;;;15.50;37.43
63663;BME280;49815;51.618;0.336;2022-10-16T11:56:01;100522.42;;;16.08;36.73
63663;BME280;49815;51.618;0.336;2022-10-16T11:58:29;100519.75;;;16.09;36.40
63663;BME280;49815;51.618;0.336;2022-10-16T12:00:58;100518.82;;;15.94;37.04
63663;BME280;49815;51.618;0.336;2022-10-16T12:03:20;100515.64;;;15.96;36.50
63663;BME280;49815;51.618;0.336;2022-10-16T12:05:57;100514.45;;;16.51;36.38
63663;BME280;49815;51.618;0.336;2022-10-16T12:08:10;100516.48;;;16.25;36.21
63663;BME280;49815;51.618;0.336;2022-10-16T12:10:33;100506.25;;;16.81;35.70
63663;BME280;49815;51.618;0.336;2022-10-16T12:12:58;100502.69;;;17.02;35.09
63663;BME280;49815;51.618;0.336;2022-10-16T12:15:26;100504.06;;;17.01;35.99
63663;BME280;49815;51.618;0.336;2022-10-16T12:17:49;100502.50;;;17.86;35.20
63663;BME280;49815;51.618;0.336;2022-10-16T12:20:22;100509.36;;;17.00;34.81
63663;BME280;49815;51.618;0.336;2022-10-16T12:22:49;100512.04;;;17.31;34.05
63663;BME280;49815;51.618;0.336;2022-10-16T12:27:32;100509.90;;;18.09;34.10
63663;BME280;49815;51.618;0.336;2022-10-16T12:29:57;100514.21;;;17.43;34.25
63663;BME280;49815;51.618;0.336;2022-10-16T12:32:27;100513.96;;;18.03;34.03
63663;BME280;49815;51.618;0.336;2022-10-16T12:34:47;100512.40;;;18.31;33.93
63663;BME280;49815;51.618;0.336;2022-10-16T12:37:14;100504.34;;;18.61;33.05
63663;BME280;49815;51.618;0.336;2022-10-16T12:39:37;100503.86;;;17.43;34.03
63663;BME280;49815;51.618;0.336;2022-10-16T12:42:04;100505.71;;;18.06;34.11
63663;BME280;49815;51.618;0.336;2022-10-16T12:44:32;100502.69;;;18.08;34.43
63663;BME280;49815;51.618;0.336;2022-10-16T12:46:52;100498.76;;;17.79;34.73
63663;BME280;49815;51.618;0.336;2022-10-16T12:49:28;100496.61;;;18.22;34.20
63663;BME280;49815;51.618;0.336;2022-10-16T12:51:43;100498.37;;;18.08;34.79
63663;BME280;49815;51.618;0.336;2022-10-16T12:54:14;100498.69;;;17.12;35.17